sensor_id;sensor_type;location;lat;lon;timestamp;temperature;humidity
43991;DHT22;29654;50.784;20.604;2023-02-13T00:04:08;8.40;55.50
43991;DHT22;29654;50.784;20.604;2023-02-13T00:09:10;8.40;55.50
43991;DHT22;29654;50.784;20.604;2023-02-13T00:14:13;8.50;55.60
43991;DHT22;29654;50.784;20.604;2023-02-13T00:19:17;8.50;55.60
43991;DHT22;29654;50.784;20.604;2023-02-13T00:24:20;8.50;55.70
43991;DHT22;29654;50.784;20.604;2023-02-13T00:29:22;8.50;55.60
43991;DHT22;29654;50.784;20.604;2023-02-13T00:34:27;8.60;55.60
43991;DHT22;29654;50.784;20.604;2023-02-13T00:39:30;8.60;55.70
43991;DHT22;29654;50.784;20.604;2023-02-13T00:44:32;8.70;55.60
43991;DHT22;29654;50.784;20.604;2023-02-13T00:49:37;8.70;55.60
43991;DHT22;29654;50.784;20.604;2023-02-13T00:54:39;8.70;55.60
43991;DHT22;29654;50.784;20.604;2023-02-13T00:59:42;8.80;55.70
43991;DHT22;29654;50.784;20.604;2023-02-13T01:04:46;8.80;55.70
43991;DHT22;29654;50.784;20.604;2023-02-13T01:09:49;8.80;55.80
43991;DHT22;29654;50.784;20.604;2023-02-13T01:14:51;8.90;55.80
43991;DHT22;29654;50.784;20.604;2023-02-13T01:19:55;9.00;55.80
43991;DHT22;29654;50.784;20.604;2023-02-13T01:24:58;9.00;55.80
43991;DHT22;29654;50.784;20.604;2023-02-13T01:30:06;9.00;55.70
43991;DHT22;29654;50.784;20.604;2023-02-13T01:35:15;9.10;55.80
43991;DHT22;29654;50.784;20.604;2023-02-13T01:40:18;9.10;55.80
43991;DHT22;29654;50.784;20.604;2023-02-13T01:45:26;9.10;55.70
43991;DHT22;29654;50.784;20.604;2023-02-13T01:50:32;9.20;55.90
43991;DHT22;29654;50.784;20.604;2023-02-13T01:55:42;9.20;56.50
43991;DHT22;29654;50.784;20.604;2023-02-13T02:00:48;9.20;55.80
43991;DHT22;29654;50.784;20.604;2023-02-13T02:05:54;9.20;55.60
43991;DHT22;29654;50.784;20.604;2023-02-13T02:11:08;9.30;55.90
43991;DHT22;29654;50.784;20.604;2023-02-13T02:16:15;9.20;55.70
43991;DHT22;29654;50.784;20.604;2023-02-13T02:21:48;9.20;55.60
43991;DHT22;29654;50.784;20.604;2023-02-13T02:32:51;9.30;56.00
43991;DHT22;29654;50.784;20.604;2023-02-13T02:38:14;9.30;56.10
43991;DHT22;29654;50.784;20.604;2023-02-13T02:43:41;9.30;56.30
43991;DHT22;29654;50.784;20.604;2023-02-13T02:48:55;9.30;56.40
43991;DHT22;29654;50.784;20.604;2023-02-13T02:54:24;9.30;56.30
43991;DHT22;29654;50.784;20.604;2023-02-13T02:59:50;9.30;56.30
43991;DHT22;29654;50.784;20.604;2023-02-13T03:05:18;9.30;56.10
43991;DHT22;29654;50.784;20.604;2023-02-13T03:10:40;9.30;56.40
43991;DHT22;29654;50.784;20.604;2023-02-13T03:16:00;9.20;56.10
43991;DHT22;29654;50.784;20.604;2023-02-13T03:21:29;9.20;56.20
43991;DHT22;29654;50.784;20.604;2023-02-13T03:26:58;9.20;56.50
43991;DHT22;29654;50.784;20.604;2023-02-13T03:32:16;9.20;56.60
43991;DHT22;29654;50.784;20.604;2023-02-13T03:37:27;9.20;56.70
43991;DHT22;29654;50.784;20.604;2023-02-13T03:42:52;9.30;56.90
43991;DHT22;29654;50.784;20.604;2023-02-13T03:48:00;9.20;56.80
43991;DHT22;29654;50.784;20.604;2023-02-13T03:53:12;9.20;56.70
43991;DHT22;29654;50.784;20.604;2023-02-13T03:58:18;9.30;57.00
43991;DHT22;29654;50.784;20.604;2023-02-13T04:03:43;9.30;56.90
43991;DHT22;29654;50.784;20.604;2023-02-13T04:08:51;9.30;57.00
43991;DHT22;29654;50.784;20.604;2023-02-13T04:13:56;9.30;57.00
43991;DHT22;29654;50.784;20.604;2023-02-13T04:19:00;9.30;57.10
43991;DHT22;29654;50.784;20.604;2023-02-13T04:24:05;9.30;57.10
43991;DHT22;29654;50.784;20.604;2023-02-13T04:29:08;9.30;57.20
43991;DHT22;29654;50.784;20.604;2023-02-13T04:34:11;9.40;57.10
43991;DHT22;29654;50.784;20.604;2023-02-13T04:39:15;9.40;57.10
43991;DHT22;29654;50.784;20.604;2023-02-13T04:44:17;9.40;57.30
43991;DHT22;29654;50.784;20.604;2023-02-13T04:49:20;9.40;57.10
43991;DHT22;29654;50.784;20.604;2023-02-13T04:54:24;9.50;57.20
43991;DHT22;29654;50.784;20.604;2023-02-13T04:59:26;9.50;57.30
43991;DHT22;29654;50.784;20.604;2023-02-13T05:04:29;9.60;57.20
43991;DHT22;29654;50.784;20.604;2023-02-13T05:09:33;9.60;57.10
43991;DHT22;29654;50.784;20.604;2023-02-13T05:14:35;9.60;57.30
43991;DHT22;29654;50.784;20.604;2023-02-13T05:19:38;9.70;57.20
43991;DHT22;29654;50.784;20.604;2023-02-13T05:24:42;9.70;57.20
43991;DHT22;29654;50.784;20.604;2023-02-13T05:29:44;9.70;57.30
43991;DHT22;29654;50.784;20.604;2023-02-13T05:34:47;9.80;57.20
43991;DHT22;29654;50.784;20.604;2023-02-13T05:39:51;9.80;57.20
43991;DHT22;29654;50.784;20.604;2023-02-13T05:44:53;9.80;57.30
43991;DHT22;29654;50.784;20.604;2023-02-13T05:49:56;9.80;57.20
43991;DHT22;29654;50.784;20.604;2023-02-13T05:55:00;9.90;57.30
43991;DHT22;29654;50.784;20.604;2023-02-13T06:00:04;9.90;57.40
43991;DHT22;29654;50.784;20.604;2023-02-13T06:05:07;9.90;57.30
43991;DHT22;29654;50.784;20.604;2023-02-13T06:10:11;9.90;57.40
43991;DHT22;29654;50.784;20.604;2023-02-13T06:15:14;9.90;57.40
43991;DHT22;29654;50.784;20.604;2023-02-13T06:20:17;9.90;57.40
43991;DHT22;29654;50.784;20.604;2023-02-13T06:25:21;9.90;57.40
43991;DHT22;29654;50.784;20.604;2023-02-13T06:30:24;10.00;57.60
43991;DHT22;29654;50.784;20.604;2023-02-13T06:35:27;10.00;57.60
43991;DHT22;29654;50.784;20.604;2023-02-13T06:40:31;10.00;57.80
43991;DHT22;29654;50.784;20.604;2023-02-13T06:45:33;10.10;57.90
43991;DHT22;29654;50.784;20.604;2023-02-13T06:50:36;10.10;57.80
43991;DHT22;29654;50.784;20.604;2023-02-13T06:55:40;10.20;57.80
43991;DHT22;29654;50.784;20.604;2023-02-13T07:00:43;10.20;57.70
43991;DHT22;29654;50.784;20.604;2023-02-13T07:05:46;10.30;57.70
43991;DHT22;29654;50.784;20.604;2023-02-13T07:10:53;10.30;57.50
43991;DHT22;29654;50.784;20.604;2023-02-13T07:15:59;10.30;57.60
43991;DHT22;29654;50.784;20.604;2023-02-13T07:21:02;10.40;57.80
43991;DHT22;29654;50.784;20.604;2023-02-13T07:26:06;10.40;57.60
43991;DHT22;29654;50.784;20.604;2023-02-13T07:31:10;10.50;57.70
43991;DHT22;29654;50.784;20.604;2023-02-13T07:36:13;10.50;57.70
43991;DHT22;29654;50.784;20.604;2023-02-13T07:41:17;10.60;57.80
43991;DHT22;29654;50.784;20.604;2023-02-13T07:46:20;10.70;57.90
43991;DHT22;29654;50.784;20.604;2023-02-13T07:51:22;10.70;57.80
43991;DHT22;29654;50.784;20.604;2023-02-13T07:56:26;10.80;57.80
43991;DHT22;29654;50.784;20.604;2023-02-13T08:01:29;10.90;58.00
43991;DHT22;29654;50.784;20.604;2023-02-13T08:06:31;11.10;57.90
43991;DHT22;29654;50.784;20.604;2023-02-13T08:11:35;11.20;57.80
43991;DHT22;29654;50.784;20.604;2023-02-13T08:17:01;11.20;57.80
43991;DHT22;29654;50.784;20.604;2023-02-13T08:22:03;11.30;57.70
43991;DHT22;29654;50.784;20.604;2023-02-13T08:27:10;11.40;57.70
43991;DHT22;29654;50.784;20.604;2023-02-13T08:32:13;11.50;57.70
43991;DHT22;29654;50.784;20.604;2023-02-13T08:37:16;11.60;57.60
43991;DHT22;29654;50.784;20.604;2023-02-13T08:42:20;11.60;57.60
43991;DHT22;29654;50.784;20.604;2023-02-13T08:47:23;11.70;57.60
43991;DHT22;29654;50.784;20.604;2023-02-13T08:52:25;11.80;57.60
43991;DHT22;29654;50.784;20.604;2023-02-13T08:57:30;11.90;57.60
43991;DHT22;29654;50.784;20.604;2023-02-13T09:02:32;12.10;57.60
43991;DHT22;29654;50.784;20.604;2023-02-13T09:07:35;12.20;57.60
43991;DHT22;29654;50.784;20.604;2023-02-13T09:12:39;12.30;57.40
43991;DHT22;29654;50.784;20.604;2023-02-13T09:17:41;12.40;57.30
43991;DHT22;29654;50.784;20.604;2023-02-13T09:22:44;12.50;57.10
43991;DHT22;29654;50.784;20.604;2023-02-13T09:27:48;12.60;57.10
43991;DHT22;29654;50.784;20.604;2023-02-13T09:32:51;12.60;57.10
43991;DHT22;29654;50.784;20.604;2023-02-13T09:37:54;12.60;57.00
43991;DHT22;29654;50.784;20.604;2023-02-13T09:43:04;12.70;57.00
43991;DHT22;29654;50.784;20.604;2023-02-13T09:48:14;12.90;57.10
43991;DHT22;29654;50.784;20.604;2023-02-13T09:53:22;13.00;57.10
43991;DHT22;29654;50.784;20.604;2023-02-13T09:58:40;13.10;56.80
43991;DHT22;29654;50.784;20.604;2023-02-13T10:03:49;13.20;56.70
43991;DHT22;29654;50.784;20.604;2023-02-13T10:09:05;13.20;56.60
43991;DHT22;29654;50.784;20.604;2023-02-13T10:14:17;13.30;56.40
43991;DHT22;29654;50.784;20.604;2023-02-13T10:19:34;13.30;56.40
43991;DHT22;29654;50.784;20.604;2023-02-13T10:24:42;13.40;56.10
43991;DHT22;29654;50.784;20.604;2023-02-13T10:29:52;13.40;56.10
43991;DHT22;29654;50.784;20.604;2023-02-13T10:35:20;13.40;56.40
43991;DHT22;29654;50.784;20.604;2023-02-13T10:40:31;13.50;56.30
43991;DHT22;29654;50.784;20.604;2023-02-13T10:46:05;13.60;56.00
43991;DHT22;29654;50.784;20.604;2023-02-13T10:51:20;13.60;55.60
43991;DHT22;29654;50.784;20.604;2023-02-13T10:56:30;13.60;55.60
43991;DHT22;29654;50.784;20.604;2023-02-13T11:01:43;13.50;55.50
43991;DHT22;29654;50.784;20.604;2023-02-13T11:06:54;13.40;55.50
43991;DHT22;29654;50.784;20.604;2023-02-13T11:11:57;13.30;55.40
43991;DHT22;29654;50.784;20.604;2023-02-13T11:17:03;13.10;55.40
43991;DHT22;29654;50.784;20.604;2023-02-13T11:22:12;13.00;55.70
43991;DHT22;29654;50.784;20.604;2023-02-13T11:27:23;12.90;55.90
43991;DHT22;29654;50.784;20.604;2023-02-13T11:32:34;12.80;56.30
43991;DHT22;29654;50.784;20.604;2023-02-13T11:37:36;12.80;56.40
43991;DHT22;29654;50.784;20.604;2023-02-13T11:42:42;12.70;56.30
43991;DHT22;29654;50.784;20.604;2023-02-13T11:47:47;12.70;56.40
43991;DHT22;29654;50.784;20.604;2023-02-13T11:52:56;12.70;56.50
43991;DHT22;29654;50.784;20.604;2023-02-13T11:58:02;12.80;56.50
43991;DHT22;29654;50.784;20.604;2023-02-13T12:03:26;12.70;56.40
43991;DHT22;29654;50.784;20.604;2023-02-13T12:08:33;12.70;56.60
43991;DHT22;29654;50.784;20.604;2023-02-13T12:13:38;12.70;56.50
43991;DHT22;29654;50.784;20.604;2023-02-13T12:18:44;12.60;56.50
43991;DHT22;29654;50.784;20.604;2023-02-13T12:23:58;12.60;56.80
43991;DHT22;29654;50.784;20.604;2023-02-13T12:29:18;12.50;57.10
43991;DHT22;29654;50.784;20.604;2023-02-13T12:34:58;12.60;57.60
43991;DHT22;29654;50.784;20.604;2023-02-13T12:40:55;12.70;57.80
43991;DHT22;29654;50.784;20.604;2023-02-13T12:46:12;12.80;57.40
43991;DHT22;29654;50.784;20.604;2023-02-13T12:51:28;12.80;56.90
43991;DHT22;29654;50.784;20.604;2023-02-13T12:56:51;12.80;57.20
43991;DHT22;29654;50.784;20.604;2023-02-13T13:02:31;12.80;57.20
43991;DHT22;29654;50.784;20.604;2023-02-13T13:08:02;12.90;57.30
43991;DHT22;29654;50.784;20.604;2023-02-13T13:13:22;13.00;57.10
43991;DHT22;29654;50.784;20.604;2023-02-13T13:18:39;13.00;57.00
43991;DHT22;29654;50.784;20.604;2023-02-13T13:23:54;13.10;56.90
43991;DHT22;29654;50.784;20.604;2023-02-13T13:29:04;13.10;56.70
43991;DHT22;29654;50.784;20.604;2023-02-13T13:34:15;13.10;56.70
43991;DHT22;29654;50.784;20.604;2023-02-13T13:39:32;13.10;56.60
43991;DHT22;29654;50.784;20.604;2023-02-13T13:50:27;12.90;55.90
43991;DHT22;29654;50.784;20.604;2023-02-13T13:56:07;12.70;55.80
43991;DHT22;29654;50.784;20.604;2023-02-13T14:01:18;12.40;55.80
43991;DHT22;29654;50.784;20.604;2023-02-13T14:06:27;12.20;55.90
43991;DHT22;29654;50.784;20.604;2023-02-13T14:11:34;11.90;56.00
43991;DHT22;29654;50.784;20.604;2023-02-13T14:16:40;11.70;56.20
43991;DHT22;29654;50.784;20.604;2023-02-13T14:21:43;11.60;56.40
43991;DHT22;29654;50.784;20.604;2023-02-13T14:26:52;11.50;56.60
43991;DHT22;29654;50.784;20.604;2023-02-13T14:32:03;11.50;56.80
43991;DHT22;29654;50.784;20.604;2023-02-13T14:37:20;11.40;57.00
43991;DHT22;29654;50.784;20.604;2023-02-13T14:42:31;11.40;57.20
43991;DHT22;29654;50.784;20.604;2023-02-13T14:47:38;11.40;57.20
43991;DHT22;29654;50.784;20.604;2023-02-13T14:52:45;11.40;57.00
43991;DHT22;29654;50.784;20.604;2023-02-13T14:57:51;11.40;57.40
43991;DHT22;29654;50.784;20.604;2023-02-13T15:02:58;11.50;57.70
43991;DHT22;29654;50.784;20.604;2023-02-13T15:08:10;11.60;57.10
43991;DHT22;29654;50.784;20.604;2023-02-13T15:13:19;11.60;56.80
43991;DHT22;29654;50.784;20.604;2023-02-13T15:18:26;11.60;56.50
43991;DHT22;29654;50.784;20.604;2023-02-13T15:23:31;11.50;56.40
43991;DHT22;29654;50.784;20.604;2023-02-13T15:28:36;11.40;56.50
43991;DHT22;29654;50.784;20.604;2023-02-13T15:33:43;11.30;56.80
43991;DHT22;29654;50.784;20.604;2023-02-13T15:38:48;11.20;56.70
43991;DHT22;29654;50.784;20.604;2023-02-13T15:43:55;11.20;57.00
43991;DHT22;29654;50.784;20.604;2023-02-13T15:49:00;11.20;56.80
43991;DHT22;29654;50.784;20.604;2023-02-13T15:54:21;11.20;56.60
43991;DHT22;29654;50.784;20.604;2023-02-13T15:59:30;11.20;56.50
43991;DHT22;29654;50.784;20.604;2023-02-13T16:04:35;11.20;56.40
43991;DHT22;29654;50.784;20.604;2023-02-13T16:09:38;11.10;56.40
43991;DHT22;29654;50.784;20.604;2023-02-13T16:14:47;11.10;56.40
43991;DHT22;29654;50.784;20.604;2023-02-13T16:19:56;11.10;56.40
43991;DHT22;29654;50.784;20.604;2023-02-13T16:25:13;11.00;56.30
43991;DHT22;29654;50.784;20.604;2023-02-13T16:30:31;11.00;56.20
43991;DHT22;29654;50.784;20.604;2023-02-13T16:35:36;11.00;56.20
43991;DHT22;29654;50.784;20.604;2023-02-13T16:40:42;10.90;56.20
43991;DHT22;29654;50.784;20.604;2023-02-13T16:45:46;10.90;56.30
43991;DHT22;29654;50.784;20.604;2023-02-13T16:50:54;10.90;56.20
43991;DHT22;29654;50.784;20.604;2023-02-13T16:55:58;10.90;56.30
43991;DHT22;29654;50.784;20.604;2023-02-13T17:01:04;10.80;56.20
43991;DHT22;29654;50.784;20.604;2023-02-13T17:06:09;10.80;56.30
43991;DHT22;29654;50.784;20.604;2023-02-13T17:11:17;10.80;56.20
43991;DHT22;29654;50.784;20.604;2023-02-13T17:16:21;10.80;56.20
43991;DHT22;29654;50.784;20.604;2023-02-13T17:21:24;10.80;56.30
43991;DHT22;29654;50.784;20.604;2023-02-13T17:26:27;10.70;56.20
43991;DHT22;29654;50.784;20.604;2023-02-13T17:31:31;10.70;56.30
43991;DHT22;29654;50.784;20.604;2023-02-13T17:36:33;10.70;56.40
43991;DHT22;29654;50.784;20.604;2023-02-13T17:41:36;10.70;56.40
43991;DHT22;29654;50.784;20.604;2023-02-13T17:46:40;10.70;56.40
43991;DHT22;29654;50.784;20.604;2023-02-13T17:51:42;10.60;56.40
43991;DHT22;29654;50.784;20.604;2023-02-13T17:56:45;10.60;56.70
43991;DHT22;29654;50.784;20.604;2023-02-13T18:01:49;10.60;56.40
43991;DHT22;29654;50.784;20.604;2023-02-13T18:06:52;10.60;56.40
43991;DHT22;29654;50.784;20.604;2023-02-13T18:11:55;10.60;56.50
43991;DHT22;29654;50.784;20.604;2023-02-13T18:16:59;10.60;56.50
43991;DHT22;29654;50.784;20.604;2023-02-13T18:22:02;10.60;56.50
43991;DHT22;29654;50.784;20.604;2023-02-13T18:27:05;10.60;56.50
43991;DHT22;29654;50.784;20.604;2023-02-13T18:32:10;10.60;56.50
43991;DHT22;29654;50.784;20.604;2023-02-13T18:37:13;10.60;56.50
43991;DHT22;29654;50.784;20.604;2023-02-13T18:42:15;10.50;56.50
43991;DHT22;29654;50.784;20.604;2023-02-13T18:47:20;10.50;56.50
43991;DHT22;29654;50.784;20.604;2023-02-13T18:52:22;10.50;56.70
43991;DHT22;29654;50.784;20.604;2023-02-13T18:57:25;10.50;56.70
43991;DHT22;29654;50.784;20.604;2023-02-13T19:02:28;10.60;56.90
43991;DHT22;29654;50.784;20.604;2023-02-13T19:07:32;10.60;56.80
43991;DHT22;29654;50.784;20.604;2023-02-13T19:12:36;10.60;56.60
43991;DHT22;29654;50.784;20.604;2023-02-13T19:17:40;10.70;56.50
43991;DHT22;29654;50.784;20.604;2023-02-13T19:22:43;10.70;56.50
43991;DHT22;29654;50.784;20.604;2023-02-13T19:27:45;10.70;56.40
43991;DHT22;29654;50.784;20.604;2023-02-13T19:32:49;10.60;56.30
43991;DHT22;29654;50.784;20.604;2023-02-13T19:37:52;10.60;56.40
43991;DHT22;29654;50.784;20.604;2023-02-13T19:42:54;10.60;56.40
43991;DHT22;29654;50.784;20.604;2023-02-13T19:47:58;10.60;56.40
43991;DHT22;29654;50.784;20.604;2023-02-13T19:53:01;10.60;56.40
43991;DHT22;29654;50.784;20.604;2023-02-13T19:58:06;10.50;56.30
43991;DHT22;29654;50.784;20.604;2023-02-13T20:03:10;10.50;56.30
43991;DHT22;29654;50.784;20.604;2023-02-13T20:08:12;10.50;56.20
43991;DHT22;29654;50.784;20.604;2023-02-13T20:13:15;10.50;56.20
43991;DHT22;29654;50.784;20.604;2023-02-13T20:18:19;10.40;56.20
43991;DHT22;29654;50.784;20.604;2023-02-13T20:23:21;10.40;56.20
43991;DHT22;29654;50.784;20.604;2023-02-13T20:28:24;10.40;56.30
43991;DHT22;29654;50.784;20.604;2023-02-13T20:33:28;10.50;56.30
43991;DHT22;29654;50.784;20.604;2023-02-13T20:38:30;10.50;56.10
43991;DHT22;29654;50.784;20.604;2023-02-13T20:43:33;10.50;56.10
43991;DHT22;29654;50.784;20.604;2023-02-13T20:48:38;10.50;56.10
43991;DHT22;29654;50.784;20.604;2023-02-13T20:53:42;10.50;56.60
43991;DHT22;29654;50.784;20.604;2023-02-13T20:58:46;10.50;56.00
43991;DHT22;29654;50.784;20.604;2023-02-13T21:03:53;10.60;56.10
43991;DHT22;29654;50.784;20.604;2023-02-13T21:08:56;10.60;56.00
43991;DHT22;29654;50.784;20.604;2023-02-13T21:14:00;10.50;56.00
43991;DHT22;29654;50.784;20.604;2023-02-13T21:19:06;10.50;56.00
43991;DHT22;29654;50.784;20.604;2023-02-13T21:24:14;10.60;56.10
43991;DHT22;29654;50.784;20.604;2023-02-13T21:29:17;10.60;56.00
43991;DHT22;29654;50.784;20.604;2023-02-13T21:34:21;10.50;56.00
43991;DHT22;29654;50.784;20.604;2023-02-13T21:39:24;10.60;56.00
43991;DHT22;29654;50.784;20.604;2023-02-13T21:44:26;10.50;55.90
43991;DHT22;29654;50.784;20.604;2023-02-13T21:49:30;10.50;55.90
43991;DHT22;29654;50.784;20.604;2023-02-13T21:54:33;10.50;56.00
43991;DHT22;29654;50.784;20.604;2023-02-13T21:59:36;10.50;56.70
43991;DHT22;29654;50.784;20.604;2023-02-13T22:04:41;10.40;56.10
43991;DHT22;29654;50.784;20.604;2023-02-13T22:09:43;10.50;56.30
43991;DHT22;29654;50.784;20.604;2023-02-13T22:14:46;10.50;56.20
43991;DHT22;29654;50.784;20.604;2023-02-13T22:19:50;10.50;56.20
43991;DHT22;29654;50.784;20.604;2023-02-13T22:24:52;10.50;56.20
43991;DHT22;29654;50.784;20.604;2023-02-13T22:29:55;10.40;56.20
43991;DHT22;29654;50.784;20.604;2023-02-13T22:34:59;10.40;56.30
43991;DHT22;29654;50.784;20.604;2023-02-13T22:40:02;10.40;56.30
43991;DHT22;29654;50.784;20.604;2023-02-13T22:45:07;10.40;56.40
43991;DHT22;29654;50.784;20.604;2023-02-13T22:50:12;10.40;56.40
43991;DHT22;29654;50.784;20.604;2023-02-13T22:55:14;10.40;56.40
43991;DHT22;29654;50.784;20.604;2023-02-13T23:00:17;10.30;56.40
43991;DHT22;29654;50.784;20.604;2023-02-13T23:05:21;10.40;56.30
43991;DHT22;29654;50.784;20.604;2023-02-13T23:10:24;10.30;56.40
43991;DHT22;29654;50.784;20.604;2023-02-13T23:15:26;10.30;56.40
43991;DHT22;29654;50.784;20.604;2023-02-13T23:20:31;10.30;56.50
43991;DHT22;29654;50.784;20.604;2023-02-13T23:25:34;10.20;56.50
43991;DHT22;29654;50.784;20.604;2023-02-13T23:30:38;10.20;56.50
43991;DHT22;29654;50.784;20.604;2023-02-13T23:35:43;10.20;56.60
43991;DHT22;29654;50.784;20.604;2023-02-13T23:40:46;10.20;56.60
43991;DHT22;29654;50.784;20.604;2023-02-13T23:45:48;10.20;56.60
43991;DHT22;29654;50.784;20.604;2023-02-13T23:50:52;10.20;56.60
43991;DHT22;29654;50.784;20.604;2023-02-13T23:55:55;10.20;56.70
